sensor_id;sensor_type;location;lat;lon;timestamp;P1;durP1;ratioP1;P2;durP2;ratioP2
11743;SDS011;5929;51.906;7.674;2023-08-17T00:01:37;5.85;;;1.75;;
11743;SDS011;5929;51.906;7.674;2023-08-17T00:04:03;5.13;;;1.90;;
11743;SDS011;5929;51.906;7.674;2023-08-17T00:06:30;7.68;;;2.17;;
11743;SDS011;5929;51.906;7.674;2023-08-17T00:08:57;5.18;;;1.67;;
11743;SDS011;5929;51.906;7.674;2023-08-17T00:11:24;6.78;;;2.38;;
11743;SDS011;5929;51.906;7.674;2023-08-17T00:13:51;9.13;;;2.53;;
11743;SDS011;5929;51.906;7.674;2023-08-17T00:16:17;6.38;;;2.22;;
11743;SDS011;5929;51.906;7.674;2023-08-17T00:18:46;5.80;;;2.08;;
11743;SDS011;5929;51.906;7.674;2023-08-17T00:21:16;7.65;;;2.13;;
11743;SDS011;5929;51.906;7.674;2023-08-17T00:23:43;9.85;;;2.35;;
11743;SDS011;5929;51.906;7.674;2023-08-17T00:26:10;6.70;;;2.30;;
11743;SDS011;5929;51.906;7.674;2023-08-17T00:28:37;10.13;;;2.25;;
11743;SDS011;5929;51.906;7.674;2023-08-17T00:31:04;11.40;;;2.17;;
11743;SDS011;5929;51.906;7.674;2023-08-17T00:33:31;6.32;;;1.90;;
11743;SDS011;5929;51.906;7.674;2023-08-17T00:35:59;6.13;;;2.20;;
11743;SDS011;5929;51.906;7.674;2023-08-17T00:38:26;6.35;;;2.05;;
11743;SDS011;5929;51.906;7.674;2023-08-17T00:40:53;7.35;;;2.08;;
11743;SDS011;5929;51.906;7.674;2023-08-17T00:43:20;5.68;;;1.63;;
11743;SDS011;5929;51.906;7.674;2023-08-17T00:45:47;10.40;;;2.20;;
11743;SDS011;5929;51.906;7.674;2023-08-17T00:48:14;7.90;;;1.98;;
11743;SDS011;5929;51.906;7.674;2023-08-17T00:50:41;6.38;;;2.15;;
11743;SDS011;5929;51.906;7.674;2023-08-17T00:53:09;8.65;;;2.20;;
11743;SDS011;5929;51.906;7.674;2023-08-17T00:55:38;7.60;;;2.10;;
11743;SDS011;5929;51.906;7.674;2023-08-17T00:58:05;8.13;;;2.10;;
11743;SDS011;5929;51.906;7.674;2023-08-17T01:00:32;6.32;;;1.80;;
11743;SDS011;5929;51.906;7.674;2023-08-17T01:02:59;10.18;;;2.05;;
11743;SDS011;5929;51.906;7.674;2023-08-17T01:05:26;9.43;;;2.25;;
11743;SDS011;5929;51.906;7.674;2023-08-17T01:07:53;7.78;;;2.00;;
11743;SDS011;5929;51.906;7.674;2023-08-17T01:10:24;8.73;;;2.10;;
11743;SDS011;5929;51.906;7.674;2023-08-17T01:12:56;7.82;;;2.03;;
11743;SDS011;5929;51.906;7.674;2023-08-17T01:15:30;7.28;;;1.60;;
11743;SDS011;5929;51.906;7.674;2023-08-17T01:18:04;4.57;;;2.05;;
11743;SDS011;5929;51.906;7.674;2023-08-17T01:20:37;6.65;;;2.50;;
11743;SDS011;5929;51.906;7.674;2023-08-17T01:23:05;8.07;;;2.30;;
11743;SDS011;5929;51.906;7.674;2023-08-17T01:25:33;9.43;;;2.42;;
11743;SDS011;5929;51.906;7.674;2023-08-17T01:28:03;6.78;;;2.20;;
11743;SDS011;5929;51.906;7.674;2023-08-17T01:30:33;8.05;;;2.40;;
11743;SDS011;5929;51.906;7.674;2023-08-17T01:33:07;11.02;;;2.70;;
11743;SDS011;5929;51.906;7.674;2023-08-17T01:35:37;15.23;;;3.20;;
11743;SDS011;5929;51.906;7.674;2023-08-17T01:38:09;8.35;;;2.63;;
11743;SDS011;5929;51.906;7.674;2023-08-17T01:40:40;11.38;;;3.55;;
11743;SDS011;5929;51.906;7.674;2023-08-17T01:43:08;10.68;;;3.42;;
11743;SDS011;5929;51.906;7.674;2023-08-17T01:45:37;13.00;;;3.60;;
11743;SDS011;5929;51.906;7.674;2023-08-17T01:48:04;8.70;;;3.20;;
11743;SDS011;5929;51.906;7.674;2023-08-17T01:50:31;9.82;;;3.80;;
11743;SDS011;5929;51.906;7.674;2023-08-17T01:52:58;8.95;;;4.28;;
11743;SDS011;5929;51.906;7.674;2023-08-17T01:55:26;11.25;;;3.95;;
11743;SDS011;5929;51.906;7.674;2023-08-17T01:57:53;9.95;;;3.75;;
11743;SDS011;5929;51.906;7.674;2023-08-17T02:00:20;10.77;;;4.20;;
11743;SDS011;5929;51.906;7.674;2023-08-17T02:02:47;9.52;;;3.70;;
11743;SDS011;5929;51.906;7.674;2023-08-17T02:05:16;9.57;;;4.20;;
11743;SDS011;5929;51.906;7.674;2023-08-17T02:07:43;8.00;;;3.47;;
11743;SDS011;5929;51.906;7.674;2023-08-17T02:10:09;9.07;;;3.85;;
11743;SDS011;5929;51.906;7.674;2023-08-17T02:12:37;11.45;;;3.80;;
11743;SDS011;5929;51.906;7.674;2023-08-17T02:15:05;11.23;;;4.32;;
11743;SDS011;5929;51.906;7.674;2023-08-17T02:17:32;11.55;;;4.22;;
11743;SDS011;5929;51.906;7.674;2023-08-17T02:19:59;10.30;;;4.68;;
11743;SDS011;5929;51.906;7.674;2023-08-17T02:22:26;9.07;;;4.50;;
11743;SDS011;5929;51.906;7.674;2023-08-17T02:24:53;9.80;;;4.50;;
11743;SDS011;5929;51.906;7.674;2023-08-17T02:27:19;10.32;;;4.63;;
11743;SDS011;5929;51.906;7.674;2023-08-17T02:29:48;10.65;;;4.40;;
11743;SDS011;5929;51.906;7.674;2023-08-17T02:32:14;11.00;;;5.18;;
11743;SDS011;5929;51.906;7.674;2023-08-17T02:34:43;9.93;;;5.65;;
11743;SDS011;5929;51.906;7.674;2023-08-17T02:37:10;12.63;;;5.05;;
11743;SDS011;5929;51.906;7.674;2023-08-17T02:39:37;10.20;;;5.60;;
11743;SDS011;5929;51.906;7.674;2023-08-17T02:42:04;11.00;;;4.93;;
11743;SDS011;5929;51.906;7.674;2023-08-17T02:44:31;10.02;;;4.68;;
11743;SDS011;5929;51.906;7.674;2023-08-17T02:46:59;8.60;;;5.40;;
11743;SDS011;5929;51.906;7.674;2023-08-17T02:59:44;11.32;;;5.07;;
11743;SDS011;5929;51.906;7.674;2023-08-17T03:02:12;9.55;;;4.88;;
11743;SDS011;5929;51.906;7.674;2023-08-17T03:04:39;11.73;;;5.68;;
11743;SDS011;5929;51.906;7.674;2023-08-17T03:07:06;10.55;;;5.60;;
11743;SDS011;5929;51.906;7.674;2023-08-17T03:09:32;14.57;;;5.45;;
11743;SDS011;5929;51.906;7.674;2023-08-17T03:11:59;12.43;;;5.40;;
11743;SDS011;5929;51.906;7.674;2023-08-17T03:14:26;10.75;;;5.93;;
11743;SDS011;5929;51.906;7.674;2023-08-17T03:16:53;10.38;;;5.68;;
11743;SDS011;5929;51.906;7.674;2023-08-17T03:19:21;14.32;;;6.22;;
11743;SDS011;5929;51.906;7.674;2023-08-17T03:21:48;8.35;;;5.32;;
11743;SDS011;5929;51.906;7.674;2023-08-17T03:24:15;11.05;;;5.75;;
11743;SDS011;5929;51.906;7.674;2023-08-17T03:26:42;12.73;;;5.97;;
11743;SDS011;5929;51.906;7.674;2023-08-17T03:29:09;16.38;;;6.22;;
11743;SDS011;5929;51.906;7.674;2023-08-17T03:31:36;12.32;;;5.57;;
11743;SDS011;5929;51.906;7.674;2023-08-17T03:34:03;12.32;;;5.43;;
11743;SDS011;5929;51.906;7.674;2023-08-17T03:36:31;12.60;;;5.63;;
11743;SDS011;5929;51.906;7.674;2023-08-17T03:38:58;11.63;;;5.93;;
11743;SDS011;5929;51.906;7.674;2023-08-17T03:41:24;12.68;;;6.13;;
11743;SDS011;5929;51.906;7.674;2023-08-17T03:43:51;9.60;;;5.13;;
11743;SDS011;5929;51.906;7.674;2023-08-17T03:46:20;13.00;;;5.80;;
11743;SDS011;5929;51.906;7.674;2023-08-17T03:48:47;13.45;;;5.85;;
11743;SDS011;5929;51.906;7.674;2023-08-17T03:51:14;12.38;;;5.40;;
11743;SDS011;5929;51.906;7.674;2023-08-17T03:53:42;11.98;;;5.55;;
11743;SDS011;5929;51.906;7.674;2023-08-17T03:56:09;14.18;;;5.55;;
11743;SDS011;5929;51.906;7.674;2023-08-17T03:58:36;9.10;;;5.35;;
11743;SDS011;5929;51.906;7.674;2023-08-17T04:01:03;10.15;;;5.10;;
11743;SDS011;5929;51.906;7.674;2023-08-17T04:03:34;14.63;;;5.97;;
11743;SDS011;5929;51.906;7.674;2023-08-17T04:06:04;13.10;;;5.68;;
11743;SDS011;5929;51.906;7.674;2023-08-17T04:08:31;14.75;;;5.75;;
11743;SDS011;5929;51.906;7.674;2023-08-17T04:10:59;13.48;;;5.43;;
11743;SDS011;5929;51.906;7.674;2023-08-17T04:13:26;10.90;;;6.03;;
11743;SDS011;5929;51.906;7.674;2023-08-17T04:15:53;13.35;;;6.38;;
11743;SDS011;5929;51.906;7.674;2023-08-17T04:18:20;11.18;;;5.55;;
11743;SDS011;5929;51.906;7.674;2023-08-17T04:20:50;14.18;;;5.63;;
11743;SDS011;5929;51.906;7.674;2023-08-17T04:23:16;10.90;;;4.90;;
11743;SDS011;5929;51.906;7.674;2023-08-17T04:25:43;11.70;;;5.43;;
11743;SDS011;5929;51.906;7.674;2023-08-17T04:28:12;13.38;;;5.80;;
11743;SDS011;5929;51.906;7.674;2023-08-17T04:30:38;11.77;;;5.55;;
11743;SDS011;5929;51.906;7.674;2023-08-17T04:33:05;8.85;;;5.63;;
11743;SDS011;5929;51.906;7.674;2023-08-17T04:35:33;9.95;;;5.22;;
11743;SDS011;5929;51.906;7.674;2023-08-17T04:38:00;11.90;;;5.25;;
11743;SDS011;5929;51.906;7.674;2023-08-17T04:40:27;11.68;;;5.07;;
11743;SDS011;5929;51.906;7.674;2023-08-17T04:42:54;14.13;;;6.00;;
11743;SDS011;5929;51.906;7.674;2023-08-17T04:45:22;11.27;;;5.60;;
11743;SDS011;5929;51.906;7.674;2023-08-17T04:47:49;11.80;;;6.28;;
11743;SDS011;5929;51.906;7.674;2023-08-17T04:50:18;11.07;;;5.85;;
11743;SDS011;5929;51.906;7.674;2023-08-17T04:52:45;9.35;;;4.97;;
11743;SDS011;5929;51.906;7.674;2023-08-17T04:55:12;10.00;;;5.50;;
11743;SDS011;5929;51.906;7.674;2023-08-17T04:57:39;10.82;;;5.97;;
11743;SDS011;5929;51.906;7.674;2023-08-17T05:00:07;13.50;;;5.63;;
11743;SDS011;5929;51.906;7.674;2023-08-17T05:02:36;10.57;;;5.15;;
11743;SDS011;5929;51.906;7.674;2023-08-17T05:05:04;11.18;;;5.30;;
11743;SDS011;5929;51.906;7.674;2023-08-17T05:07:32;13.43;;;5.65;;
11743;SDS011;5929;51.906;7.674;2023-08-17T05:09:59;10.02;;;5.40;;
11743;SDS011;5929;51.906;7.674;2023-08-17T05:12:26;10.45;;;5.65;;
11743;SDS011;5929;51.906;7.674;2023-08-17T05:14:54;10.68;;;5.60;;
11743;SDS011;5929;51.906;7.674;2023-08-17T05:17:20;9.57;;;5.20;;
11743;SDS011;5929;51.906;7.674;2023-08-17T05:19:49;11.15;;;6.20;;
11743;SDS011;5929;51.906;7.674;2023-08-17T05:22:16;12.88;;;5.65;;
11743;SDS011;5929;51.906;7.674;2023-08-17T05:24:43;14.13;;;6.20;;
11743;SDS011;5929;51.906;7.674;2023-08-17T05:27:10;13.40;;;5.68;;
11743;SDS011;5929;51.906;7.674;2023-08-17T05:29:37;10.82;;;6.00;;
11743;SDS011;5929;51.906;7.674;2023-08-17T05:32:04;12.32;;;6.40;;
11743;SDS011;5929;51.906;7.674;2023-08-17T05:34:31;9.85;;;5.65;;
11743;SDS011;5929;51.906;7.674;2023-08-17T05:37:00;9.70;;;5.45;;
11743;SDS011;5929;51.906;7.674;2023-08-17T05:39:27;13.10;;;5.50;;
11743;SDS011;5929;51.906;7.674;2023-08-17T05:41:54;10.93;;;5.55;;
11743;SDS011;5929;51.906;7.674;2023-08-17T05:44:23;10.13;;;5.50;;
11743;SDS011;5929;51.906;7.674;2023-08-17T05:46:50;13.15;;;5.43;;
11743;SDS011;5929;51.906;7.674;2023-08-17T05:49:16;10.45;;;5.57;;
11743;SDS011;5929;51.906;7.674;2023-08-17T05:51:43;11.57;;;5.25;;
11743;SDS011;5929;51.906;7.674;2023-08-17T05:54:11;12.75;;;5.63;;
11743;SDS011;5929;51.906;7.674;2023-08-17T05:56:38;10.85;;;5.53;;
11743;SDS011;5929;51.906;7.674;2023-08-17T05:59:09;13.23;;;5.78;;
11743;SDS011;5929;51.906;7.674;2023-08-17T06:01:36;11.07;;;5.10;;
11743;SDS011;5929;51.906;7.674;2023-08-17T06:04:03;11.80;;;5.40;;
11743;SDS011;5929;51.906;7.674;2023-08-17T06:06:30;13.20;;;5.57;;
11743;SDS011;5929;51.906;7.674;2023-08-17T06:08:57;9.10;;;4.65;;
11743;SDS011;5929;51.906;7.674;2023-08-17T06:11:25;8.95;;;4.75;;
11743;SDS011;5929;51.906;7.674;2023-08-17T06:13:52;8.65;;;4.65;;
11743;SDS011;5929;51.906;7.674;2023-08-17T06:16:19;11.90;;;4.97;;
11743;SDS011;5929;51.906;7.674;2023-08-17T06:18:46;9.80;;;4.57;;
11743;SDS011;5929;51.906;7.674;2023-08-17T06:21:13;10.85;;;5.18;;
11743;SDS011;5929;51.906;7.674;2023-08-17T06:23:40;8.90;;;5.00;;
11743;SDS011;5929;51.906;7.674;2023-08-17T06:26:06;12.73;;;5.07;;
11743;SDS011;5929;51.906;7.674;2023-08-17T06:28:35;11.18;;;4.45;;
11743;SDS011;5929;51.906;7.674;2023-08-17T06:31:02;10.07;;;5.20;;
11743;SDS011;5929;51.906;7.674;2023-08-17T06:33:29;11.60;;;5.47;;
11743;SDS011;5929;51.906;7.674;2023-08-17T06:35:55;12.43;;;5.18;;
11743;SDS011;5929;51.906;7.674;2023-08-17T06:38:22;13.13;;;5.38;;
11743;SDS011;5929;51.906;7.674;2023-08-17T06:40:51;6.80;;;4.20;;
11743;SDS011;5929;51.906;7.674;2023-08-17T06:43:18;11.57;;;5.20;;
11743;SDS011;5929;51.906;7.674;2023-08-17T06:45:47;10.10;;;4.30;;
11743;SDS011;5929;51.906;7.674;2023-08-17T06:48:13;9.55;;;4.65;;
11743;SDS011;5929;51.906;7.674;2023-08-17T06:50:40;11.57;;;5.00;;
11743;SDS011;5929;51.906;7.674;2023-08-17T06:53:07;11.18;;;4.97;;
11743;SDS011;5929;51.906;7.674;2023-08-17T06:55:34;13.02;;;4.90;;
11743;SDS011;5929;51.906;7.674;2023-08-17T06:58:01;8.15;;;4.30;;
11743;SDS011;5929;51.906;7.674;2023-08-17T07:00:28;9.93;;;4.80;;
11743;SDS011;5929;51.906;7.674;2023-08-17T07:02:56;12.23;;;5.30;;
11743;SDS011;5929;51.906;7.674;2023-08-17T07:05:24;11.10;;;4.80;;
11743;SDS011;5929;51.906;7.674;2023-08-17T07:07:51;10.60;;;4.20;;
11743;SDS011;5929;51.906;7.674;2023-08-17T07:10:18;9.32;;;4.38;;
11743;SDS011;5929;51.906;7.674;2023-08-17T07:12:46;10.45;;;4.55;;
11743;SDS011;5929;51.906;7.674;2023-08-17T07:15:12;11.05;;;5.28;;
11743;SDS011;5929;51.906;7.674;2023-08-17T07:17:40;12.32;;;5.15;;
11743;SDS011;5929;51.906;7.674;2023-08-17T07:20:09;10.65;;;5.28;;
11743;SDS011;5929;51.906;7.674;2023-08-17T07:22:37;14.13;;;5.32;;
11743;SDS011;5929;51.906;7.674;2023-08-17T07:25:04;13.68;;;4.78;;
11743;SDS011;5929;51.906;7.674;2023-08-17T07:27:33;10.63;;;5.30;;
11743;SDS011;5929;51.906;7.674;2023-08-17T07:30:02;10.70;;;5.80;;
11743;SDS011;5929;51.906;7.674;2023-08-17T07:32:29;13.52;;;5.97;;
11743;SDS011;5929;51.906;7.674;2023-08-17T07:34:56;10.95;;;5.85;;
11743;SDS011;5929;51.906;7.674;2023-08-17T07:37:24;10.57;;;5.93;;
11743;SDS011;5929;51.906;7.674;2023-08-17T07:39:57;10.77;;;5.72;;
11743;SDS011;5929;51.906;7.674;2023-08-17T07:42:25;14.13;;;6.45;;
11743;SDS011;5929;51.906;7.674;2023-08-17T07:44:51;10.57;;;5.68;;
11743;SDS011;5929;51.906;7.674;2023-08-17T07:47:18;10.82;;;6.32;;
11743;SDS011;5929;51.906;7.674;2023-08-17T07:49:45;10.75;;;5.95;;
11743;SDS011;5929;51.906;7.674;2023-08-17T07:52:12;10.00;;;6.38;;
11743;SDS011;5929;51.906;7.674;2023-08-17T07:54:43;9.95;;;5.72;;
11743;SDS011;5929;51.906;7.674;2023-08-17T07:57:12;11.90;;;6.07;;
11743;SDS011;5929;51.906;7.674;2023-08-17T07:59:39;15.77;;;6.50;;
11743;SDS011;5929;51.906;7.674;2023-08-17T08:02:05;12.85;;;6.55;;
11743;SDS011;5929;51.906;7.674;2023-08-17T08:04:32;14.55;;;6.70;;
11743;SDS011;5929;51.906;7.674;2023-08-17T08:06:59;12.35;;;6.07;;
11743;SDS011;5929;51.906;7.674;2023-08-17T08:09:26;12.60;;;6.20;;
11743;SDS011;5929;51.906;7.674;2023-08-17T08:11:55;11.95;;;6.32;;
11743;SDS011;5929;51.906;7.674;2023-08-17T08:14:22;12.23;;;5.97;;
11743;SDS011;5929;51.906;7.674;2023-08-17T08:16:49;14.93;;;6.22;;
11743;SDS011;5929;51.906;7.674;2023-08-17T08:19:15;11.65;;;5.72;;
11743;SDS011;5929;51.906;7.674;2023-08-17T08:21:42;12.90;;;7.30;;
11743;SDS011;5929;51.906;7.674;2023-08-17T08:24:09;11.27;;;6.68;;
11743;SDS011;5929;51.906;7.674;2023-08-17T08:26:36;13.52;;;7.05;;
11743;SDS011;5929;51.906;7.674;2023-08-17T08:29:06;12.93;;;6.65;;
11743;SDS011;5929;51.906;7.674;2023-08-17T08:31:34;14.95;;;7.03;;
11743;SDS011;5929;51.906;7.674;2023-08-17T08:34:01;9.75;;;6.03;;
11743;SDS011;5929;51.906;7.674;2023-08-17T08:36:27;13.90;;;7.10;;
11743;SDS011;5929;51.906;7.674;2023-08-17T08:38:54;13.32;;;7.07;;
11743;SDS011;5929;51.906;7.674;2023-08-17T08:41:21;14.07;;;7.05;;
11743;SDS011;5929;51.906;7.674;2023-08-17T08:43:49;14.05;;;7.07;;
11743;SDS011;5929;51.906;7.674;2023-08-17T08:46:18;11.18;;;7.05;;
11743;SDS011;5929;51.906;7.674;2023-08-17T08:48:47;11.95;;;6.88;;
11743;SDS011;5929;51.906;7.674;2023-08-17T08:51:19;14.88;;;7.85;;
11743;SDS011;5929;51.906;7.674;2023-08-17T08:53:52;12.30;;;7.28;;
11743;SDS011;5929;51.906;7.674;2023-08-17T08:56:27;12.45;;;8.07;;
11743;SDS011;5929;51.906;7.674;2023-08-17T08:58:57;11.93;;;7.50;;
11743;SDS011;5929;51.906;7.674;2023-08-17T09:01:28;17.02;;;7.95;;
11743;SDS011;5929;51.906;7.674;2023-08-17T09:03:58;17.60;;;7.40;;
11743;SDS011;5929;51.906;7.674;2023-08-17T09:06:25;11.27;;;7.40;;
11743;SDS011;5929;51.906;7.674;2023-08-17T09:08:54;8.63;;;6.18;;
11743;SDS011;5929;51.906;7.674;2023-08-17T09:11:22;13.65;;;7.78;;
11743;SDS011;5929;51.906;7.674;2023-08-17T09:13:49;12.68;;;7.35;;
11743;SDS011;5929;51.906;7.674;2023-08-17T09:16:16;11.98;;;7.10;;
11743;SDS011;5929;51.906;7.674;2023-08-17T09:18:44;14.27;;;6.85;;
11743;SDS011;5929;51.906;7.674;2023-08-17T09:21:19;13.00;;;6.82;;
11743;SDS011;5929;51.906;7.674;2023-08-17T09:23:50;10.63;;;7.25;;
11743;SDS011;5929;51.906;7.674;2023-08-17T09:26:17;13.38;;;8.18;;
11743;SDS011;5929;51.906;7.674;2023-08-17T09:28:47;14.57;;;6.63;;
11743;SDS011;5929;51.906;7.674;2023-08-17T09:31:13;12.05;;;9.60;;
11743;SDS011;5929;51.906;7.674;2023-08-17T09:33:40;11.15;;;7.40;;
11743;SDS011;5929;51.906;7.674;2023-08-17T09:36:09;13.07;;;8.05;;
11743;SDS011;5929;51.906;7.674;2023-08-17T09:38:37;15.02;;;8.10;;
11743;SDS011;5929;51.906;7.674;2023-08-17T09:41:04;14.80;;;9.43;;
11743;SDS011;5929;51.906;7.674;2023-08-17T09:43:33;12.95;;;8.93;;
11743;SDS011;5929;51.906;7.674;2023-08-17T09:46:01;12.40;;;8.18;;
11743;SDS011;5929;51.906;7.674;2023-08-17T09:48:29;16.20;;;10.02;;
11743;SDS011;5929;51.906;7.674;2023-08-17T09:50:57;14.10;;;8.88;;
11743;SDS011;5929;51.906;7.674;2023-08-17T09:53:27;10.38;;;7.68;;
11743;SDS011;5929;51.906;7.674;2023-08-17T09:55:54;14.20;;;9.30;;
11743;SDS011;5929;51.906;7.674;2023-08-17T09:58:23;12.30;;;8.05;;
11743;SDS011;5929;51.906;7.674;2023-08-17T10:00:50;16.65;;;9.00;;
11743;SDS011;5929;51.906;7.674;2023-08-17T10:03:18;17.95;;;10.02;;
11743;SDS011;5929;51.906;7.674;2023-08-17T10:05:47;20.55;;;10.45;;
11743;SDS011;5929;51.906;7.674;2023-08-17T10:08:21;14.18;;;9.65;;
11743;SDS011;5929;51.906;7.674;2023-08-17T10:10:52;14.50;;;9.00;;
11743;SDS011;5929;51.906;7.674;2023-08-17T10:13:23;16.17;;;10.88;;
11743;SDS011;5929;51.906;7.674;2023-08-17T10:16:00;17.75;;;10.80;;
11743;SDS011;5929;51.906;7.674;2023-08-17T10:18:35;16.58;;;10.05;;
11743;SDS011;5929;51.906;7.674;2023-08-17T10:21:07;20.23;;;10.07;;
11743;SDS011;5929;51.906;7.674;2023-08-17T10:23:39;19.67;;;9.88;;
11743;SDS011;5929;51.906;7.674;2023-08-17T10:26:08;14.30;;;8.95;;
11743;SDS011;5929;51.906;7.674;2023-08-17T10:28:36;15.38;;;9.55;;
11743;SDS011;5929;51.906;7.674;2023-08-17T10:31:05;17.73;;;8.68;;
11743;SDS011;5929;51.906;7.674;2023-08-17T10:33:33;15.52;;;8.60;;
11743;SDS011;5929;51.906;7.674;2023-08-17T10:36:00;14.40;;;8.77;;
11743;SDS011;5929;51.906;7.674;2023-08-17T10:38:27;15.70;;;9.55;;
11743;SDS011;5929;51.906;7.674;2023-08-17T10:41:08;13.98;;;8.93;;
11743;SDS011;5929;51.906;7.674;2023-08-17T10:46:21;15.35;;;10.27;;
11743;SDS011;5929;51.906;7.674;2023-08-17T10:49:00;13.52;;;8.93;;
11743;SDS011;5929;51.906;7.674;2023-08-17T10:51:29;16.38;;;10.80;;
11743;SDS011;5929;51.906;7.674;2023-08-17T10:53:57;15.23;;;9.73;;
11743;SDS011;5929;51.906;7.674;2023-08-17T10:56:27;16.50;;;11.70;;
11743;SDS011;5929;51.906;7.674;2023-08-17T10:58:58;16.98;;;11.43;;
11743;SDS011;5929;51.906;7.674;2023-08-17T11:01:32;14.63;;;11.00;;
11743;SDS011;5929;51.906;7.674;2023-08-17T11:04:15;15.93;;;10.93;;
11743;SDS011;5929;51.906;7.674;2023-08-17T11:06:43;13.00;;;9.00;;
11743;SDS011;5929;51.906;7.674;2023-08-17T11:09:10;17.17;;;10.82;;
11743;SDS011;5929;51.906;7.674;2023-08-17T11:11:39;17.60;;;10.20;;
11743;SDS011;5929;51.906;7.674;2023-08-17T11:14:06;16.83;;;11.65;;
11743;SDS011;5929;51.906;7.674;2023-08-17T11:16:33;19.98;;;11.70;;
11743;SDS011;5929;51.906;7.674;2023-08-17T11:19:00;16.70;;;11.65;;
11743;SDS011;5929;51.906;7.674;2023-08-17T11:21:27;18.58;;;11.38;;
11743;SDS011;5929;51.906;7.674;2023-08-17T11:23:57;15.52;;;11.30;;
11743;SDS011;5929;51.906;7.674;2023-08-17T11:26:24;16.30;;;11.52;;
11743;SDS011;5929;51.906;7.674;2023-08-17T11:28:52;15.95;;;11.32;;
11743;SDS011;5929;51.906;7.674;2023-08-17T11:31:19;16.65;;;11.43;;
11743;SDS011;5929;51.906;7.674;2023-08-17T11:33:46;14.48;;;10.70;;
11743;SDS011;5929;51.906;7.674;2023-08-17T11:36:13;17.38;;;11.00;;
11743;SDS011;5929;51.906;7.674;2023-08-17T11:38:40;16.15;;;10.95;;
11743;SDS011;5929;51.906;7.674;2023-08-17T11:41:08;16.75;;;10.88;;
11743;SDS011;5929;51.906;7.674;2023-08-17T11:43:36;19.15;;;11.73;;
11743;SDS011;5929;51.906;7.674;2023-08-17T11:46:05;15.73;;;11.38;;
11743;SDS011;5929;51.906;7.674;2023-08-17T11:48:32;19.92;;;12.30;;
11743;SDS011;5929;51.906;7.674;2023-08-17T11:50:59;21.90;;;12.85;;
11743;SDS011;5929;51.906;7.674;2023-08-17T11:53:32;16.05;;;11.63;;
11743;SDS011;5929;51.906;7.674;2023-08-17T11:55:59;24.75;;;14.23;;
11743;SDS011;5929;51.906;7.674;2023-08-17T11:58:36;21.27;;;13.88;;
11743;SDS011;5929;51.906;7.674;2023-08-17T12:01:09;22.35;;;15.23;;
11743;SDS011;5929;51.906;7.674;2023-08-17T12:03:39;21.02;;;14.35;;
11743;SDS011;5929;51.906;7.674;2023-08-17T12:06:06;25.25;;;16.40;;
11743;SDS011;5929;51.906;7.674;2023-08-17T12:08:34;25.17;;;17.10;;
11743;SDS011;5929;51.906;7.674;2023-08-17T12:11:01;20.65;;;16.40;;
11743;SDS011;5929;51.906;7.674;2023-08-17T12:13:30;22.40;;;16.50;;
11743;SDS011;5929;51.906;7.674;2023-08-17T12:15:58;20.77;;;17.00;;
11743;SDS011;5929;51.906;7.674;2023-08-17T12:18:27;25.42;;;16.90;;
11743;SDS011;5929;51.906;7.674;2023-08-17T12:20:56;21.95;;;16.10;;
11743;SDS011;5929;51.906;7.674;2023-08-17T12:23:23;23.05;;;16.98;;
11743;SDS011;5929;51.906;7.674;2023-08-17T12:25:53;19.23;;;16.63;;
11743;SDS011;5929;51.906;7.674;2023-08-17T12:28:21;20.38;;;15.93;;
11743;SDS011;5929;51.906;7.674;2023-08-17T12:30:55;21.00;;;15.43;;
11743;SDS011;5929;51.906;7.674;2023-08-17T12:33:24;19.33;;;14.65;;
11743;SDS011;5929;51.906;7.674;2023-08-17T12:35:52;22.58;;;15.95;;
11743;SDS011;5929;51.906;7.674;2023-08-17T12:38:19;19.20;;;13.70;;
11743;SDS011;5929;51.906;7.674;2023-08-17T12:40:46;20.65;;;14.68;;
11743;SDS011;5929;51.906;7.674;2023-08-17T12:43:13;15.80;;;12.70;;
11743;SDS011;5929;51.906;7.674;2023-08-17T12:45:40;16.05;;;13.02;;
11743;SDS011;5929;51.906;7.674;2023-08-17T12:48:07;14.73;;;10.73;;
11743;SDS011;5929;51.906;7.674;2023-08-17T12:50:34;15.52;;;10.93;;
11743;SDS011;5929;51.906;7.674;2023-08-17T12:53:02;14.90;;;11.25;;
11743;SDS011;5929;51.906;7.674;2023-08-17T12:55:29;16.95;;;11.32;;
11743;SDS011;5929;51.906;7.674;2023-08-17T12:57:56;15.13;;;9.60;;
11743;SDS011;5929;51.906;7.674;2023-08-17T13:00:22;15.65;;;10.85;;
11743;SDS011;5929;51.906;7.674;2023-08-17T13:02:49;23.08;;;11.98;;
11743;SDS011;5929;51.906;7.674;2023-08-17T13:05:16;17.20;;;9.45;;
11743;SDS011;5929;51.906;7.674;2023-08-17T13:07:43;16.55;;;11.05;;
11743;SDS011;5929;51.906;7.674;2023-08-17T13:10:11;16.75;;;10.40;;
11743;SDS011;5929;51.906;7.674;2023-08-17T13:12:38;15.20;;;9.73;;
11743;SDS011;5929;51.906;7.674;2023-08-17T13:15:05;13.15;;;10.30;;
11743;SDS011;5929;51.906;7.674;2023-08-17T13:17:33;13.48;;;10.23;;
11743;SDS011;5929;51.906;7.674;2023-08-17T13:20:00;13.85;;;11.43;;
11743;SDS011;5929;51.906;7.674;2023-08-17T13:22:28;13.85;;;10.38;;
11743;SDS011;5929;51.906;7.674;2023-08-17T13:24:55;13.45;;;10.40;;
11743;SDS011;5929;51.906;7.674;2023-08-17T13:27:23;15.30;;;10.68;;
11743;SDS011;5929;51.906;7.674;2023-08-17T13:29:50;15.52;;;11.52;;
11743;SDS011;5929;51.906;7.674;2023-08-17T13:32:17;13.55;;;10.75;;
11743;SDS011;5929;51.906;7.674;2023-08-17T13:34:46;17.25;;;12.55;;
11743;SDS011;5929;51.906;7.674;2023-08-17T13:37:13;16.08;;;12.20;;
11743;SDS011;5929;51.906;7.674;2023-08-17T13:39:40;15.55;;;11.80;;
11743;SDS011;5929;51.906;7.674;2023-08-17T13:42:07;13.43;;;9.80;;
11743;SDS011;5929;51.906;7.674;2023-08-17T13:44:35;13.50;;;10.13;;
11743;SDS011;5929;51.906;7.674;2023-08-17T13:47:02;16.20;;;12.00;;
11743;SDS011;5929;51.906;7.674;2023-08-17T13:49:28;16.65;;;11.07;;
11743;SDS011;5929;51.906;7.674;2023-08-17T13:51:55;12.68;;;9.77;;
11743;SDS011;5929;51.906;7.674;2023-08-17T13:54:22;16.95;;;11.50;;
11743;SDS011;5929;51.906;7.674;2023-08-17T13:56:49;13.38;;;9.65;;
11743;SDS011;5929;51.906;7.674;2023-08-17T13:59:16;14.65;;;10.88;;
11743;SDS011;5929;51.906;7.674;2023-08-17T14:01:44;15.18;;;10.52;;
11743;SDS011;5929;51.906;7.674;2023-08-17T14:04:11;13.30;;;10.57;;
11743;SDS011;5929;51.906;7.674;2023-08-17T14:06:39;13.68;;;9.95;;
11743;SDS011;5929;51.906;7.674;2023-08-17T14:09:06;13.85;;;10.20;;
11743;SDS011;5929;51.906;7.674;2023-08-17T14:11:33;12.73;;;10.30;;
11743;SDS011;5929;51.906;7.674;2023-08-17T14:14:00;13.00;;;10.32;;
11743;SDS011;5929;51.906;7.674;2023-08-17T14:16:27;12.55;;;9.80;;
11743;SDS011;5929;51.906;7.674;2023-08-17T14:18:55;12.45;;;9.75;;
11743;SDS011;5929;51.906;7.674;2023-08-17T14:21:22;13.07;;;9.63;;
11743;SDS011;5929;51.906;7.674;2023-08-17T14:23:49;13.85;;;10.38;;
11743;SDS011;5929;51.906;7.674;2023-08-17T14:26:15;12.88;;;9.73;;
11743;SDS011;5929;51.906;7.674;2023-08-17T14:28:42;15.25;;;10.55;;
11743;SDS011;5929;51.906;7.674;2023-08-17T14:31:11;14.27;;;10.13;;
11743;SDS011;5929;51.906;7.674;2023-08-17T14:33:40;15.50;;;10.88;;
11743;SDS011;5929;51.906;7.674;2023-08-17T14:36:09;13.82;;;11.13;;
11743;SDS011;5929;51.906;7.674;2023-08-17T14:38:35;15.40;;;10.35;;
11743;SDS011;5929;51.906;7.674;2023-08-17T14:41:02;13.40;;;11.43;;
11743;SDS011;5929;51.906;7.674;2023-08-17T14:43:29;14.48;;;11.00;;
11743;SDS011;5929;51.906;7.674;2023-08-17T14:45:56;15.27;;;10.88;;
11743;SDS011;5929;51.906;7.674;2023-08-17T14:48:23;16.35;;;9.75;;
11743;SDS011;5929;51.906;7.674;2023-08-17T14:50:50;14.38;;;10.88;;
11743;SDS011;5929;51.906;7.674;2023-08-17T14:53:18;15.48;;;11.00;;
11743;SDS011;5929;51.906;7.674;2023-08-17T14:55:45;15.55;;;11.68;;
11743;SDS011;5929;51.906;7.674;2023-08-17T14:58:12;14.52;;;9.85;;
11743;SDS011;5929;51.906;7.674;2023-08-17T15:00:40;15.40;;;11.48;;
11743;SDS011;5929;51.906;7.674;2023-08-17T15:03:07;12.77;;;10.60;;